Wetterdaten: September 2015
Datum Temp Feuchte Luftdruck Regen Wind Richtung Sonnenschein UV Solar Windben
01.09.2015 15,0 C 93 % 1011,3 hPa 20,0 l/m 0,6 km/h N-NW 0,42 h 0,9 UV-I 68 W/m 5,6 km/h
02.09.2015 13,1 C 84 % 1015,4 hPa 0,2 l/m 0,6 km/h S 4,67 h 2,7 UV-I 308 W/m 6,4 km/h
03.09.2015 11,9 C 85 % 1013,3 hPa 4,4 l/m 0,3 km/h W-NW 5,08 h 2,3 UV-I 282 W/m 2,8 km/h
04.09.2015 12,5 C 81 % 1012,5 hPa 0,0 l/m 8,9 km/h S 3,33 h 1,8 UV-I 244 W/m 16,1 km/h
05.09.2015 10,9 C 94 % 1013,3 hPa 12,4 l/m 1,6 km/h W 0,58 h 1,3 UV-I 125 W/m 10,1 km/h
06.09.2015 10,6 C 92 % 1020,3 hPa 3,4 l/m 4,8 km/h NW 1,33 h 1,3 UV-I 159 W/m 21,0 km/h
07.09.2015 12,3 C 96 % 1023,7 hPa 15,4 l/m 0,4 km/h NW 1,08 h 1,4 UV-I 157 W/m 2,4 km/h
08.09.2015 12,5 C 93 % 1023,8 hPa 0,2 l/m 0,3 km/h N-NW 0,42 h 1,4 UV-I 127 W/m 2,8 km/h
09.09.2015 11,7 C 80 % 1023,7 hPa 0,0 l/m 1,9 km/h SO 8,17 h 2,4 UV-I 378 W/m 5,2 km/h
10.09.2015 11,9 C 83 % 1022,7 hPa 0,0 l/m 0,0 km/h N-NO 5,67 h 2,0 UV-I 289 W/m 0,0 km/h
11.09.2015 12,2 C 85 % 1017,8 hPa 0,0 l/m 1,1 km/h SO 9,00 h 2,0 UV-I 353 W/m 5,6 km/h
12.09.2015 14,7 C 86 % 1013,3 hPa 4,2 l/m 1,4 km/h SO 3,17 h 1,7 UV-I 221 W/m 4,0 km/h
13.09.2015 15,6 C 95 % 1007,6 hPa 5,6 l/m 1,9 km/h SO 1,50 h 1,2 UV-I 118 W/m 8,9 km/h
14.09.2015 14,8 C 90 % 1001,9 hPa 9,8 l/m 3,6 km/h S 3,00 h 1,7 UV-I 193 W/m 5,6 km/h
15.09.2015 9,7 C 90 % 1004,8 hPa 0,4 l/m 5,3 km/h S 3,17 h 1,3 UV-I 202 W/m 10,1 km/h
16.09.2015 14,3 C 94 % 996,2 hPa 15,0 l/m 16,0 km/h S-SO 0,08 h 0,9 UV-I 78 W/m 28,6 km/h
17.09.2015 13,6 C 90 % 1002,3 hPa 3,6 l/m 5,8 km/h S 0,00 h 0,9 UV-I 84 W/m 13,7 km/h
18.09.2015 11,6 C 85 % 1015,4 hPa 0,2 l/m 2,5 km/h S 6,58 h 2,1 UV-I 326 W/m 4,4 km/h
19.09.2015 12,6 C 92 % 1020,6 hPa 5,8 l/m 0,9 km/h W-NW 2,00 h 1,4 UV-I 168 W/m 4,8 km/h
20.09.2015 11,3 C 95 % 1021,8 hPa 9,2 l/m 0,4 km/h NW 0,42 h 1,1 UV-I 112 W/m 4,0 km/h
21.09.2015 12,1 C 85 % 1013,4 hPa 0,4 l/m 0,9 km/h S 5,50 h 2,0 UV-I 274 W/m 4,8 km/h
22.09.2015 10,9 C 95 % 1001,3 hPa 4,4 l/m 0,5 km/h S-SO 0,75 h 1,0 UV-I 121 W/m 3,6 km/h
23.09.2015 10,1 C 93 % 1009,6 hPa 3,0 l/m 0,3 km/h S 2,83 h 1,5 UV-I 169 W/m 2,8 km/h
24.09.2015 11,8 C 87 % 1017,3 hPa 1,2 l/m 1,3 km/h S 3,00 h 1,4 UV-I 179 W/m 4,0 km/h
25.09.2015 11,4 C 92 % 1021,8 hPa 0,6 l/m 0,6 km/h W-NW 3,83 h 1,7 UV-I 233 W/m 4,0 km/h
26.09.2015 9,5 C 89 % 1027,1 hPa 0,0 l/m 0,5 km/h N-NO 3,50 h 1,5 UV-I 211 W/m 2,8 km/h
27.09.2015 8,8 C 87 % 1033,2 hPa 0,0 l/m 0,1 km/h N-NO 5,92 h 1,7 UV-I 284 W/m 1,6 km/h
28.09.2015 9,1 C 87 % 1036,7 hPa 0,2 l/m 0,9 km/h N-NO 8,00 h 1,9 UV-I 321 W/m 4,0 km/h
29.09.2015 10,0 C 80 % 1036,0 hPa 0,0 l/m 0,5 km/h N-NO 5,75 h 1,8 UV-I 266 W/m 3,2 km/h
30.09.2015 10,6 C 75 % 1034,1 hPa 0,0 l/m 0,4 km/h SO 8,75 h 2,0 UV-I 325 W/m 2,4 km/h
Min-Datum 28.09.15 09.09.15 16.09.15 22 Tage 01.09.15 - - - - 01.09.15
Min-Zeit 01:35 16:40 22:00 - 00:20 - - - - 00:20
Minimum 4,6 C 50 % 993,9 hPa - 0,0 km/h - - - - 0,0 km/h
Max-Datum 01.09.15 26.09.15 28.09.15 01.09.15 15.09.15 - 11.09.15 02.09.15 08.09.15 16.09.15
Max-Zeit 00:00 07:10 11:35 12:00 14:10 - 18:15 13:15 13:45 22:30
Maximum 21,5 C 100 % 1037,7 hPa 20,0 l/m 29,9 km/h
S
- 8,92 h 5,5 UV-I 939 W/m 49,9 km/h
SO
Durchschnitt 11,9 C 88 % 1017,1 hPa #119,6 l/m 2,1 km/h S #107:30 h 1,6 UV-I 212 W/m 6,5 km/h

Durchschnitt Minimum Temp.8,6 C
Durchschnitt Maximum Temp.16,8 C